sensor_id;sensor_type;location;lat;lon;timestamp;P1;durP1;ratioP1;P2;durP2;ratioP2
5379;SDS011;2713;42.680;23.310;2022-09-09T00:00:17;14.83;;;13.20;;
5379;SDS011;2713;42.680;23.310;2022-09-09T00:02:47;16.83;;;13.70;;
5379;SDS011;2713;42.680;23.310;2022-09-09T00:05:23;16.13;;;12.90;;
5379;SDS011;2713;42.680;23.310;2022-09-09T00:07:58;17.20;;;13.53;;
5379;SDS011;2713;42.680;23.310;2022-09-09T00:10:30;15.47;;;13.70;;
5379;SDS011;2713;42.680;23.310;2022-09-09T00:13:01;15.07;;;13.57;;
5379;SDS011;2713;42.680;23.310;2022-09-09T00:15:43;14.83;;;12.80;;
5379;SDS011;2713;42.680;23.310;2022-09-09T00:18:21;16.33;;;13.20;;
5379;SDS011;2713;42.680;23.310;2022-09-09T00:20:55;15.97;;;13.47;;
5379;SDS011;2713;42.680;23.310;2022-09-09T00:23:29;14.63;;;13.23;;
5379;SDS011;2713;42.680;23.310;2022-09-09T00:26:03;14.87;;;13.37;;
5379;SDS011;2713;42.680;23.310;2022-09-09T00:28:36;15.77;;;14.00;;
5379;SDS011;2713;42.680;23.310;2022-09-09T00:31:11;14.33;;;12.83;;
5379;SDS011;2713;42.680;23.310;2022-09-09T00:33:40;15.10;;;13.50;;
5379;SDS011;2713;42.680;23.310;2022-09-09T00:36:10;14.13;;;12.80;;
5379;SDS011;2713;42.680;23.310;2022-09-09T00:38:44;14.53;;;13.00;;
5379;SDS011;2713;42.680;23.310;2022-09-09T00:41:16;15.73;;;14.03;;
5379;SDS011;2713;42.680;23.310;2022-09-09T00:43:51;16.63;;;13.23;;
5379;SDS011;2713;42.680;23.310;2022-09-09T00:46:33;14.20;;;12.77;;
5379;SDS011;2713;42.680;23.310;2022-09-09T00:49:15;14.90;;;13.40;;
5379;SDS011;2713;42.680;23.310;2022-09-09T00:51:54;15.50;;;13.50;;
5379;SDS011;2713;42.680;23.310;2022-09-09T00:54:34;17.80;;;14.00;;
5379;SDS011;2713;42.680;23.310;2022-09-09T00:57:13;14.50;;;13.00;;
5379;SDS011;2713;42.680;23.310;2022-09-09T00:59:46;14.50;;;13.00;;
5379;SDS011;2713;42.680;23.310;2022-09-09T01:02:17;16.63;;;13.90;;
5379;SDS011;2713;42.680;23.310;2022-09-09T01:04:51;15.73;;;13.13;;
5379;SDS011;2713;42.680;23.310;2022-09-09T01:07:20;15.07;;;13.57;;
5379;SDS011;2713;42.680;23.310;2022-09-09T01:09:55;15.27;;;13.67;;
5379;SDS011;2713;42.680;23.310;2022-09-09T01:12:25;14.13;;;12.70;;
5379;SDS011;2713;42.680;23.310;2022-09-09T01:15:00;14.80;;;13.13;;
5379;SDS011;2713;42.680;23.310;2022-09-09T01:17:41;14.80;;;13.07;;
5379;SDS011;2713;42.680;23.310;2022-09-09T01:20:17;16.57;;;12.57;;
5379;SDS011;2713;42.680;23.310;2022-09-09T01:23:05;15.97;;;12.90;;
5379;SDS011;2713;42.680;23.310;2022-09-09T01:28:48;15.37;;;13.83;;
5379;SDS011;2713;42.680;23.310;2022-09-09T01:34:04;15.00;;;13.40;;
5379;SDS011;2713;42.680;23.310;2022-09-09T01:36:38;15.90;;;13.37;;
5379;SDS011;2713;42.680;23.310;2022-09-09T01:39:10;14.80;;;13.23;;
5379;SDS011;2713;42.680;23.310;2022-09-09T01:41:40;15.30;;;13.70;;
5379;SDS011;2713;42.680;23.310;2022-09-09T01:44:10;15.83;;;14.27;;
5379;SDS011;2713;42.680;23.310;2022-09-09T01:46:40;16.70;;;13.97;;
5379;SDS011;2713;42.680;23.310;2022-09-09T01:49:13;15.37;;;12.87;;
5379;SDS011;2713;42.680;23.310;2022-09-09T01:51:40;16.03;;;14.10;;
5379;SDS011;2713;42.680;23.310;2022-09-09T01:54:12;15.27;;;13.77;;
5379;SDS011;2713;42.680;23.310;2022-09-09T01:56:47;14.63;;;13.10;;
5379;SDS011;2713;42.680;23.310;2022-09-09T01:59:30;14.20;;;12.80;;
5379;SDS011;2713;42.680;23.310;2022-09-09T02:02:09;15.17;;;13.77;;
5379;SDS011;2713;42.680;23.310;2022-09-09T02:04:43;14.67;;;13.07;;
5379;SDS011;2713;42.680;23.310;2022-09-09T02:07:19;15.27;;;13.80;;
5379;SDS011;2713;42.680;23.310;2022-09-09T02:09:59;14.90;;;13.30;;
5379;SDS011;2713;42.680;23.310;2022-09-09T02:12:33;14.77;;;13.27;;
5379;SDS011;2713;42.680;23.310;2022-09-09T02:15:03;15.70;;;14.00;;
5379;SDS011;2713;42.680;23.310;2022-09-09T02:17:43;13.80;;;12.50;;
5379;SDS011;2713;42.680;23.310;2022-09-09T02:20:15;14.40;;;13.00;;
5379;SDS011;2713;42.680;23.310;2022-09-09T02:22:54;16.40;;;13.33;;
5379;SDS011;2713;42.680;23.310;2022-09-09T02:25:24;16.67;;;14.20;;
5379;SDS011;2713;42.680;23.310;2022-09-09T02:28:00;16.40;;;14.70;;
5379;SDS011;2713;42.680;23.310;2022-09-09T02:30:30;17.57;;;14.93;;
5379;SDS011;2713;42.680;23.310;2022-09-09T02:32:59;16.37;;;14.67;;
5379;SDS011;2713;42.680;23.310;2022-09-09T02:35:47;19.73;;;16.20;;
5379;SDS011;2713;42.680;23.310;2022-09-09T02:38:19;17.53;;;14.93;;
5379;SDS011;2713;42.680;23.310;2022-09-09T02:40:56;16.47;;;14.77;;
5379;SDS011;2713;42.680;23.310;2022-09-09T02:43:25;17.43;;;15.40;;
5379;SDS011;2713;42.680;23.310;2022-09-09T02:45:54;17.13;;;15.20;;
5379;SDS011;2713;42.680;23.310;2022-09-09T02:48:31;17.37;;;15.17;;
5379;SDS011;2713;42.680;23.310;2022-09-09T02:51:05;19.07;;;15.43;;
5379;SDS011;2713;42.680;23.310;2022-09-09T02:53:39;17.60;;;15.57;;
5379;SDS011;2713;42.680;23.310;2022-09-09T02:56:15;17.53;;;15.50;;
5379;SDS011;2713;42.680;23.310;2022-09-09T02:58:47;21.17;;;16.37;;
5379;SDS011;2713;42.680;23.310;2022-09-09T03:01:14;15.80;;;14.20;;
5379;SDS011;2713;42.680;23.310;2022-09-09T03:03:42;16.93;;;15.13;;
5379;SDS011;2713;42.680;23.310;2022-09-09T03:06:14;18.70;;;14.67;;
5379;SDS011;2713;42.680;23.310;2022-09-09T03:08:43;19.23;;;15.30;;
5379;SDS011;2713;42.680;23.310;2022-09-09T03:11:10;17.10;;;15.07;;
5379;SDS011;2713;42.680;23.310;2022-09-09T03:13:40;20.53;;;14.67;;
5379;SDS011;2713;42.680;23.310;2022-09-09T03:16:10;17.47;;;15.67;;
5379;SDS011;2713;42.680;23.310;2022-09-09T03:18:42;16.20;;;14.30;;
5379;SDS011;2713;42.680;23.310;2022-09-09T03:21:11;18.60;;;15.30;;
5379;SDS011;2713;42.680;23.310;2022-09-09T03:23:39;17.10;;;15.00;;
5379;SDS011;2713;42.680;23.310;2022-09-09T03:26:06;17.27;;;15.50;;
5379;SDS011;2713;42.680;23.310;2022-09-09T03:28:39;16.60;;;14.83;;
5379;SDS011;2713;42.680;23.310;2022-09-09T03:31:06;18.00;;;15.37;;
5379;SDS011;2713;42.680;23.310;2022-09-09T03:33:40;17.67;;;15.27;;
5379;SDS011;2713;42.680;23.310;2022-09-09T03:36:10;18.57;;;14.70;;
5379;SDS011;2713;42.680;23.310;2022-09-09T03:38:37;17.33;;;14.10;;
5379;SDS011;2713;42.680;23.310;2022-09-09T03:41:05;15.60;;;14.10;;
5379;SDS011;2713;42.680;23.310;2022-09-09T03:43:33;16.27;;;14.33;;
5379;SDS011;2713;42.680;23.310;2022-09-09T03:46:00;15.47;;;13.77;;
5379;SDS011;2713;42.680;23.310;2022-09-09T03:48:28;16.33;;;14.20;;
5379;SDS011;2713;42.680;23.310;2022-09-09T03:50:57;16.27;;;14.20;;
5379;SDS011;2713;42.680;23.310;2022-09-09T03:53:26;16.17;;;14.43;;
5379;SDS011;2713;42.680;23.310;2022-09-09T03:55:55;19.93;;;14.90;;
5379;SDS011;2713;42.680;23.310;2022-09-09T03:58:26;20.23;;;15.10;;
5379;SDS011;2713;42.680;23.310;2022-09-09T04:00:59;20.13;;;15.43;;
5379;SDS011;2713;42.680;23.310;2022-09-09T04:03:27;19.03;;;16.17;;
5379;SDS011;2713;42.680;23.310;2022-09-09T04:05:58;19.30;;;15.40;;
5379;SDS011;2713;42.680;23.310;2022-09-09T04:08:28;18.07;;;14.33;;
5379;SDS011;2713;42.680;23.310;2022-09-09T04:10:56;43.30;;;32.63;;
5379;SDS011;2713;42.680;23.310;2022-09-09T04:13:25;31.90;;;23.43;;
5379;SDS011;2713;42.680;23.310;2022-09-09T04:15:53;20.97;;;16.40;;
5379;SDS011;2713;42.680;23.310;2022-09-09T04:18:22;16.63;;;15.03;;
5379;SDS011;2713;42.680;23.310;2022-09-09T04:20:49;16.53;;;14.93;;
5379;SDS011;2713;42.680;23.310;2022-09-09T04:23:21;15.80;;;13.93;;
5379;SDS011;2713;42.680;23.310;2022-09-09T04:25:50;17.20;;;15.40;;
5379;SDS011;2713;42.680;23.310;2022-09-09T04:28:18;17.00;;;15.30;;
5379;SDS011;2713;42.680;23.310;2022-09-09T04:30:47;17.97;;;15.17;;
5379;SDS011;2713;42.680;23.310;2022-09-09T04:33:14;17.63;;;15.83;;
5379;SDS011;2713;42.680;23.310;2022-09-09T04:35:43;16.93;;;15.03;;
5379;SDS011;2713;42.680;23.310;2022-09-09T04:38:11;20.80;;;15.73;;
5379;SDS011;2713;42.680;23.310;2022-09-09T04:40:40;17.30;;;15.47;;
5379;SDS011;2713;42.680;23.310;2022-09-09T04:43:08;15.93;;;14.30;;
5379;SDS011;2713;42.680;23.310;2022-09-09T04:45:36;18.83;;;16.10;;
5379;SDS011;2713;42.680;23.310;2022-09-09T04:48:03;17.20;;;15.40;;
5379;SDS011;2713;42.680;23.310;2022-09-09T04:50:29;17.87;;;15.87;;
5379;SDS011;2713;42.680;23.310;2022-09-09T04:52:59;17.00;;;15.30;;
5379;SDS011;2713;42.680;23.310;2022-09-09T04:55:27;20.23;;;17.77;;
5379;SDS011;2713;42.680;23.310;2022-09-09T04:57:55;18.30;;;16.23;;
5379;SDS011;2713;42.680;23.310;2022-09-09T05:00:23;20.23;;;16.97;;
5379;SDS011;2713;42.680;23.310;2022-09-09T05:02:50;18.77;;;16.77;;
5379;SDS011;2713;42.680;23.310;2022-09-09T05:05:17;18.47;;;16.50;;
5379;SDS011;2713;42.680;23.310;2022-09-09T05:07:46;17.90;;;15.80;;
5379;SDS011;2713;42.680;23.310;2022-09-09T05:10:14;18.93;;;16.87;;
5379;SDS011;2713;42.680;23.310;2022-09-09T05:12:42;18.60;;;16.77;;
5379;SDS011;2713;42.680;23.310;2022-09-09T05:15:11;17.50;;;15.70;;
5379;SDS011;2713;42.680;23.310;2022-09-09T05:17:38;18.07;;;16.27;;
5379;SDS011;2713;42.680;23.310;2022-09-09T05:20:05;18.93;;;17.00;;
5379;SDS011;2713;42.680;23.310;2022-09-09T05:22:32;19.83;;;16.30;;
5379;SDS011;2713;42.680;23.310;2022-09-09T05:24:59;20.27;;;15.93;;
5379;SDS011;2713;42.680;23.310;2022-09-09T05:27:26;21.27;;;17.50;;
5379;SDS011;2713;42.680;23.310;2022-09-09T05:29:53;24.17;;;16.23;;
5379;SDS011;2713;42.680;23.310;2022-09-09T05:32:21;22.37;;;17.07;;
5379;SDS011;2713;42.680;23.310;2022-09-09T05:34:48;21.70;;;16.90;;
5379;SDS011;2713;42.680;23.310;2022-09-09T05:37:16;19.87;;;17.77;;
5379;SDS011;2713;42.680;23.310;2022-09-09T05:39:43;21.23;;;18.10;;
5379;SDS011;2713;42.680;23.310;2022-09-09T05:42:11;19.10;;;16.50;;
5379;SDS011;2713;42.680;23.310;2022-09-09T05:44:38;22.10;;;17.10;;
5379;SDS011;2713;42.680;23.310;2022-09-09T05:47:04;18.40;;;16.60;;
5379;SDS011;2713;42.680;23.310;2022-09-09T05:49:34;19.20;;;17.10;;
5379;SDS011;2713;42.680;23.310;2022-09-09T05:52:01;24.70;;;19.00;;
5379;SDS011;2713;42.680;23.310;2022-09-09T05:54:29;21.10;;;17.20;;
5379;SDS011;2713;42.680;23.310;2022-09-09T05:56:56;17.50;;;15.67;;
5379;SDS011;2713;42.680;23.310;2022-09-09T05:59:23;17.33;;;15.63;;
5379;SDS011;2713;42.680;23.310;2022-09-09T06:01:52;21.87;;;15.73;;
5379;SDS011;2713;42.680;23.310;2022-09-09T06:04:25;16.13;;;14.40;;
5379;SDS011;2713;42.680;23.310;2022-09-09T06:06:53;17.10;;;14.00;;
5379;SDS011;2713;42.680;23.310;2022-09-09T06:09:21;16.30;;;14.67;;
5379;SDS011;2713;42.680;23.310;2022-09-09T06:11:48;15.30;;;13.67;;
5379;SDS011;2713;42.680;23.310;2022-09-09T06:14:15;14.73;;;13.10;;
5379;SDS011;2713;42.680;23.310;2022-09-09T06:16:45;15.60;;;13.90;;
5379;SDS011;2713;42.680;23.310;2022-09-09T06:19:23;14.87;;;13.30;;
5379;SDS011;2713;42.680;23.310;2022-09-09T06:21:55;15.97;;;13.80;;
5379;SDS011;2713;42.680;23.310;2022-09-09T06:24:22;18.80;;;14.00;;
5379;SDS011;2713;42.680;23.310;2022-09-09T06:26:50;14.23;;;12.83;;
5379;SDS011;2713;42.680;23.310;2022-09-09T06:29:21;14.20;;;12.73;;
5379;SDS011;2713;42.680;23.310;2022-09-09T06:31:49;13.90;;;12.60;;
5379;SDS011;2713;42.680;23.310;2022-09-09T06:34:20;16.13;;;13.93;;
5379;SDS011;2713;42.680;23.310;2022-09-09T06:36:51;15.77;;;14.17;;
5379;SDS011;2713;42.680;23.310;2022-09-09T06:39:19;16.47;;;14.77;;
5379;SDS011;2713;42.680;23.310;2022-09-09T06:41:46;22.13;;;16.67;;
5379;SDS011;2713;42.680;23.310;2022-09-09T06:44:32;17.70;;;15.80;;
5379;SDS011;2713;42.680;23.310;2022-09-09T06:46:59;17.30;;;15.60;;
5379;SDS011;2713;42.680;23.310;2022-09-09T06:49:26;17.90;;;16.10;;
5379;SDS011;2713;42.680;23.310;2022-09-09T06:51:53;21.83;;;17.47;;
5379;SDS011;2713;42.680;23.310;2022-09-09T06:54:22;18.03;;;16.13;;
5379;SDS011;2713;42.680;23.310;2022-09-09T06:56:49;24.23;;;15.97;;
5379;SDS011;2713;42.680;23.310;2022-09-09T06:59:21;15.80;;;14.10;;
5379;SDS011;2713;42.680;23.310;2022-09-09T07:01:48;16.40;;;14.77;;
5379;SDS011;2713;42.680;23.310;2022-09-09T07:04:17;16.03;;;14.43;;
5379;SDS011;2713;42.680;23.310;2022-09-09T07:06:44;17.00;;;14.50;;
5379;SDS011;2713;42.680;23.310;2022-09-09T07:09:16;17.53;;;14.10;;
5379;SDS011;2713;42.680;23.310;2022-09-09T07:11:48;16.57;;;13.73;;
5379;SDS011;2713;42.680;23.310;2022-09-09T07:14:19;20.20;;;13.50;;
5379;SDS011;2713;42.680;23.310;2022-09-09T07:16:51;16.93;;;12.40;;
5379;SDS011;2713;42.680;23.310;2022-09-09T07:19:18;13.03;;;11.40;;
5379;SDS011;2713;42.680;23.310;2022-09-09T07:21:49;14.90;;;13.00;;
5379;SDS011;2713;42.680;23.310;2022-09-09T07:24:18;22.30;;;13.30;;
5379;SDS011;2713;42.680;23.310;2022-09-09T07:26:47;14.13;;;12.63;;
5379;SDS011;2713;42.680;23.310;2022-09-09T07:29:14;12.23;;;11.13;;
5379;SDS011;2713;42.680;23.310;2022-09-09T07:31:41;14.40;;;12.17;;
5379;SDS011;2713;42.680;23.310;2022-09-09T07:34:16;15.30;;;12.23;;
5379;SDS011;2713;42.680;23.310;2022-09-09T07:36:44;15.77;;;13.57;;
5379;SDS011;2713;42.680;23.310;2022-09-09T07:39:12;24.87;;;17.30;;
5379;SDS011;2713;42.680;23.310;2022-09-09T07:41:45;16.30;;;14.63;;
5379;SDS011;2713;42.680;23.310;2022-09-09T07:44:17;14.07;;;12.77;;
5379;SDS011;2713;42.680;23.310;2022-09-09T07:46:48;14.10;;;12.20;;
5379;SDS011;2713;42.680;23.310;2022-09-09T07:49:19;14.10;;;12.43;;
5379;SDS011;2713;42.680;23.310;2022-09-09T07:51:47;14.47;;;12.20;;
5379;SDS011;2713;42.680;23.310;2022-09-09T07:54:16;13.60;;;11.80;;
5379;SDS011;2713;42.680;23.310;2022-09-09T07:56:47;14.47;;;11.00;;
5379;SDS011;2713;42.680;23.310;2022-09-09T07:59:14;12.37;;;11.27;;
5379;SDS011;2713;42.680;23.310;2022-09-09T08:01:47;11.87;;;10.37;;
5379;SDS011;2713;42.680;23.310;2022-09-09T08:04:18;12.27;;;11.00;;
5379;SDS011;2713;42.680;23.310;2022-09-09T08:06:47;11.97;;;10.83;;
5379;SDS011;2713;42.680;23.310;2022-09-09T08:09:17;13.03;;;10.23;;
5379;SDS011;2713;42.680;23.310;2022-09-09T08:11:46;12.07;;;9.93;;
5379;SDS011;2713;42.680;23.310;2022-09-09T08:14:16;12.37;;;11.20;;
5379;SDS011;2713;42.680;23.310;2022-09-09T08:16:45;14.20;;;10.60;;
5379;SDS011;2713;42.680;23.310;2022-09-09T08:19:16;12.10;;;10.87;;
5379;SDS011;2713;42.680;23.310;2022-09-09T08:21:45;10.63;;;9.63;;
5379;SDS011;2713;42.680;23.310;2022-09-09T08:24:14;12.90;;;10.87;;
5379;SDS011;2713;42.680;23.310;2022-09-09T08:26:45;11.43;;;10.17;;
5379;SDS011;2713;42.680;23.310;2022-09-09T08:29:15;14.73;;;11.63;;
5379;SDS011;2713;42.680;23.310;2022-09-09T08:31:46;12.60;;;10.77;;
5379;SDS011;2713;42.680;23.310;2022-09-09T08:34:14;12.13;;;10.77;;
5379;SDS011;2713;42.680;23.310;2022-09-09T08:36:43;11.40;;;10.10;;
5379;SDS011;2713;42.680;23.310;2022-09-09T08:39:12;12.03;;;10.87;;
5379;SDS011;2713;42.680;23.310;2022-09-09T08:41:49;11.83;;;9.93;;
5379;SDS011;2713;42.680;23.310;2022-09-09T08:44:31;10.87;;;9.87;;
5379;SDS011;2713;42.680;23.310;2022-09-09T08:47:08;17.60;;;10.57;;
5379;SDS011;2713;42.680;23.310;2022-09-09T08:49:54;11.33;;;10.13;;
5379;SDS011;2713;42.680;23.310;2022-09-09T08:52:47;12.60;;;11.10;;
5379;SDS011;2713;42.680;23.310;2022-09-09T08:55:26;10.83;;;9.73;;
5379;SDS011;2713;42.680;23.310;2022-09-09T08:58:04;10.10;;;9.20;;
5379;SDS011;2713;42.680;23.310;2022-09-09T09:00:40;11.43;;;10.00;;
5379;SDS011;2713;42.680;23.310;2022-09-09T09:03:30;10.90;;;9.80;;
5379;SDS011;2713;42.680;23.310;2022-09-09T09:06:09;10.73;;;9.70;;
5379;SDS011;2713;42.680;23.310;2022-09-09T09:08:49;13.40;;;9.70;;
5379;SDS011;2713;42.680;23.310;2022-09-09T09:11:21;11.00;;;10.00;;
5379;SDS011;2713;42.680;23.310;2022-09-09T09:13:50;11.73;;;10.00;;
5379;SDS011;2713;42.680;23.310;2022-09-09T09:16:23;10.70;;;9.70;;
5379;SDS011;2713;42.680;23.310;2022-09-09T09:18:57;14.20;;;10.10;;
5379;SDS011;2713;42.680;23.310;2022-09-09T09:21:31;13.27;;;10.07;;
5379;SDS011;2713;42.680;23.310;2022-09-09T09:24:03;11.20;;;10.00;;
5379;SDS011;2713;42.680;23.310;2022-09-09T09:26:34;13.53;;;10.60;;
5379;SDS011;2713;42.680;23.310;2022-09-09T09:29:08;11.93;;;10.83;;
5379;SDS011;2713;42.680;23.310;2022-09-09T09:31:41;11.93;;;10.50;;
5379;SDS011;2713;42.680;23.310;2022-09-09T09:34:10;10.90;;;9.80;;
5379;SDS011;2713;42.680;23.310;2022-09-09T09:36:40;11.23;;;10.13;;
5379;SDS011;2713;42.680;23.310;2022-09-09T09:39:21;13.73;;;10.63;;
5379;SDS011;2713;42.680;23.310;2022-09-09T09:41:50;15.13;;;11.00;;
5379;SDS011;2713;42.680;23.310;2022-09-09T09:44:22;11.70;;;10.43;;
5379;SDS011;2713;42.680;23.310;2022-09-09T09:46:52;13.90;;;12.40;;
5379;SDS011;2713;42.680;23.310;2022-09-09T09:49:19;12.30;;;11.07;;
5379;SDS011;2713;42.680;23.310;2022-09-09T09:51:46;12.30;;;11.00;;
5379;SDS011;2713;42.680;23.310;2022-09-09T09:54:15;16.67;;;12.27;;
5379;SDS011;2713;42.680;23.310;2022-09-09T09:56:51;13.13;;;11.50;;
5379;SDS011;2713;42.680;23.310;2022-09-09T09:59:20;22.43;;;11.73;;
5379;SDS011;2713;42.680;23.310;2022-09-09T10:01:48;11.57;;;10.40;;
5379;SDS011;2713;42.680;23.310;2022-09-09T10:04:18;12.20;;;10.90;;
5379;SDS011;2713;42.680;23.310;2022-09-09T10:06:50;12.00;;;10.40;;
5379;SDS011;2713;42.680;23.310;2022-09-09T10:09:21;13.80;;;11.20;;
5379;SDS011;2713;42.680;23.310;2022-09-09T10:11:52;11.00;;;9.90;;
5379;SDS011;2713;42.680;23.310;2022-09-09T10:14:27;11.40;;;10.20;;
5379;SDS011;2713;42.680;23.310;2022-09-09T10:17:05;13.10;;;10.33;;
5379;SDS011;2713;42.680;23.310;2022-09-09T10:19:45;11.47;;;10.00;;
5379;SDS011;2713;42.680;23.310;2022-09-09T10:22:27;12.20;;;10.47;;
5379;SDS011;2713;42.680;23.310;2022-09-09T10:25:01;12.63;;;11.43;;
5379;SDS011;2713;42.680;23.310;2022-09-09T10:27:44;11.97;;;10.37;;
5379;SDS011;2713;42.680;23.310;2022-09-09T10:30:24;15.90;;;10.17;;
5379;SDS011;2713;42.680;23.310;2022-09-09T10:33:01;15.83;;;12.27;;
5379;SDS011;2713;42.680;23.310;2022-09-09T10:35:34;13.80;;;12.10;;
5379;SDS011;2713;42.680;23.310;2022-09-09T10:38:16;12.53;;;11.40;;
5379;SDS011;2713;42.680;23.310;2022-09-09T10:41:09;12.37;;;11.07;;
5379;SDS011;2713;42.680;23.310;2022-09-09T10:43:52;13.93;;;11.30;;
5379;SDS011;2713;42.680;23.310;2022-09-09T10:46:33;13.03;;;11.73;;
5379;SDS011;2713;42.680;23.310;2022-09-09T10:49:11;13.00;;;11.70;;
5379;SDS011;2713;42.680;23.310;2022-09-09T10:51:48;14.53;;;12.70;;
5379;SDS011;2713;42.680;23.310;2022-09-09T10:54:27;15.20;;;13.60;;
5379;SDS011;2713;42.680;23.310;2022-09-09T10:57:07;17.10;;;12.10;;
5379;SDS011;2713;42.680;23.310;2022-09-09T10:59:40;14.70;;;12.90;;
5379;SDS011;2713;42.680;23.310;2022-09-09T11:02:12;15.03;;;12.00;;
5379;SDS011;2713;42.680;23.310;2022-09-09T11:04:44;16.60;;;13.53;;
5379;SDS011;2713;42.680;23.310;2022-09-09T11:07:18;15.90;;;12.30;;
5379;SDS011;2713;42.680;23.310;2022-09-09T11:09:54;17.63;;;14.00;;
5379;SDS011;2713;42.680;23.310;2022-09-09T11:12:26;25.80;;;14.90;;
5379;SDS011;2713;42.680;23.310;2022-09-09T11:14:55;14.73;;;13.30;;
5379;SDS011;2713;42.680;23.310;2022-09-09T11:17:31;15.80;;;12.90;;
5379;SDS011;2713;42.680;23.310;2022-09-09T11:20:03;14.80;;;13.10;;
5379;SDS011;2713;42.680;23.310;2022-09-09T11:22:35;16.10;;;13.03;;
5379;SDS011;2713;42.680;23.310;2022-09-09T11:25:07;17.00;;;14.40;;
5379;SDS011;2713;42.680;23.310;2022-09-09T11:27:42;20.17;;;13.60;;
5379;SDS011;2713;42.680;23.310;2022-09-09T11:30:20;18.40;;;13.80;;
5379;SDS011;2713;42.680;23.310;2022-09-09T11:32:56;17.50;;;13.57;;
5379;SDS011;2713;42.680;23.310;2022-09-09T11:35:42;14.47;;;12.90;;
5379;SDS011;2713;42.680;23.310;2022-09-09T11:38:24;15.20;;;13.60;;
5379;SDS011;2713;42.680;23.310;2022-09-09T11:40:56;16.90;;;13.73;;
5379;SDS011;2713;42.680;23.310;2022-09-09T11:43:27;17.50;;;12.80;;
5379;SDS011;2713;42.680;23.310;2022-09-09T11:45:57;14.07;;;12.57;;
5379;SDS011;2713;42.680;23.310;2022-09-09T11:48:29;14.23;;;12.23;;
5379;SDS011;2713;42.680;23.310;2022-09-09T11:51:00;16.77;;;13.10;;
5379;SDS011;2713;42.680;23.310;2022-09-09T11:53:34;17.17;;;13.00;;
5379;SDS011;2713;42.680;23.310;2022-09-09T11:56:22;14.83;;;13.20;;
5379;SDS011;2713;42.680;23.310;2022-09-09T11:58:56;14.77;;;13.00;;
5379;SDS011;2713;42.680;23.310;2022-09-09T12:01:29;15.87;;;12.80;;
5379;SDS011;2713;42.680;23.310;2022-09-09T12:07:03;16.20;;;13.90;;
5379;SDS011;2713;42.680;23.310;2022-09-09T12:12:22;16.07;;;13.33;;
5379;SDS011;2713;42.680;23.310;2022-09-09T12:14:55;15.37;;;12.90;;
5379;SDS011;2713;42.680;23.310;2022-09-09T12:17:27;17.17;;;12.90;;
5379;SDS011;2713;42.680;23.310;2022-09-09T12:20:08;16.83;;;13.90;;
5379;SDS011;2713;42.680;23.310;2022-09-09T12:22:43;15.00;;;13.13;;
5379;SDS011;2713;42.680;23.310;2022-09-09T12:25:26;22.00;;;14.10;;
5379;SDS011;2713;42.680;23.310;2022-09-09T12:28:02;14.60;;;13.07;;
5379;SDS011;2713;42.680;23.310;2022-09-09T12:30:35;14.50;;;13.10;;
5379;SDS011;2713;42.680;23.310;2022-09-09T12:33:08;16.90;;;13.50;;
5379;SDS011;2713;42.680;23.310;2022-09-09T12:35:38;19.27;;;14.33;;
5379;SDS011;2713;42.680;23.310;2022-09-09T12:38:09;14.50;;;13.10;;
5379;SDS011;2713;42.680;23.310;2022-09-09T12:40:41;16.87;;;13.33;;
5379;SDS011;2713;42.680;23.310;2022-09-09T12:43:17;17.10;;;15.13;;
5379;SDS011;2713;42.680;23.310;2022-09-09T12:45:46;18.03;;;16.13;;
5379;SDS011;2713;42.680;23.310;2022-09-09T12:48:15;16.80;;;14.57;;
5379;SDS011;2713;42.680;23.310;2022-09-09T12:50:47;20.03;;;14.00;;
5379;SDS011;2713;42.680;23.310;2022-09-09T12:53:17;15.57;;;13.87;;
5379;SDS011;2713;42.680;23.310;2022-09-09T12:55:53;16.73;;;12.50;;
5379;SDS011;2713;42.680;23.310;2022-09-09T12:58:22;17.50;;;14.00;;
5379;SDS011;2713;42.680;23.310;2022-09-09T13:00:50;17.53;;;13.77;;
5379;SDS011;2713;42.680;23.310;2022-09-09T13:03:19;17.43;;;13.33;;
5379;SDS011;2713;42.680;23.310;2022-09-09T13:05:47;15.77;;;13.93;;
5379;SDS011;2713;42.680;23.310;2022-09-09T13:08:15;18.50;;;13.40;;
5379;SDS011;2713;42.680;23.310;2022-09-09T13:10:46;16.90;;;14.80;;
5379;SDS011;2713;42.680;23.310;2022-09-09T13:13:22;15.20;;;10.37;;
5379;SDS011;2713;42.680;23.310;2022-09-09T13:15:52;13.17;;;8.90;;
5379;SDS011;2713;42.680;23.310;2022-09-09T13:18:22;9.73;;;8.20;;
5379;SDS011;2713;42.680;23.310;2022-09-09T13:20:51;9.33;;;8.10;;
5379;SDS011;2713;42.680;23.310;2022-09-09T13:23:18;15.63;;;8.53;;
5379;SDS011;2713;42.680;23.310;2022-09-09T13:25:53;13.17;;;8.90;;
5379;SDS011;2713;42.680;23.310;2022-09-09T13:28:23;12.30;;;9.07;;
5379;SDS011;2713;42.680;23.310;2022-09-09T13:30:55;16.23;;;9.60;;
5379;SDS011;2713;42.680;23.310;2022-09-09T13:33:28;17.70;;;11.10;;
5379;SDS011;2713;42.680;23.310;2022-09-09T13:35:57;19.30;;;9.27;;
5379;SDS011;2713;42.680;23.310;2022-09-09T13:38:25;15.83;;;9.90;;
5379;SDS011;2713;42.680;23.310;2022-09-09T13:40:56;12.97;;;9.10;;
5379;SDS011;2713;42.680;23.310;2022-09-09T13:43:28;17.20;;;9.87;;
5379;SDS011;2713;42.680;23.310;2022-09-09T13:45:58;20.23;;;12.80;;
5379;SDS011;2713;42.680;23.310;2022-09-09T13:48:26;13.23;;;10.30;;
5379;SDS011;2713;42.680;23.310;2022-09-09T13:50:58;12.57;;;10.70;;
5379;SDS011;2713;42.680;23.310;2022-09-09T13:53:28;14.00;;;12.37;;
5379;SDS011;2713;42.680;23.310;2022-09-09T13:55:55;14.63;;;13.10;;
5379;SDS011;2713;42.680;23.310;2022-09-09T13:58:23;13.43;;;11.93;;
5379;SDS011;2713;42.680;23.310;2022-09-09T14:00:52;12.37;;;10.90;;
5379;SDS011;2713;42.680;23.310;2022-09-09T14:03:19;16.40;;;11.73;;
5379;SDS011;2713;42.680;23.310;2022-09-09T14:05:47;16.53;;;13.30;;
5379;SDS011;2713;42.680;23.310;2022-09-09T14:08:16;18.73;;;13.90;;
5379;SDS011;2713;42.680;23.310;2022-09-09T14:10:50;16.07;;;14.40;;
5379;SDS011;2713;42.680;23.310;2022-09-09T14:13:17;14.00;;;12.67;;
5379;SDS011;2713;42.680;23.310;2022-09-09T14:15:47;21.37;;;17.47;;
5379;SDS011;2713;42.680;23.310;2022-09-09T14:18:16;20.40;;;15.20;;
5379;SDS011;2713;42.680;23.310;2022-09-09T14:20:43;20.30;;;17.93;;
5379;SDS011;2713;42.680;23.310;2022-09-09T14:23:11;22.70;;;15.20;;
5379;SDS011;2713;42.680;23.310;2022-09-09T14:25:41;28.00;;;21.30;;
5379;SDS011;2713;42.680;23.310;2022-09-09T14:28:09;26.27;;;17.77;;
5379;SDS011;2713;42.680;23.310;2022-09-09T14:30:38;14.97;;;13.50;;
5379;SDS011;2713;42.680;23.310;2022-09-09T14:33:06;18.03;;;14.40;;
5379;SDS011;2713;42.680;23.310;2022-09-09T14:35:35;14.93;;;13.33;;
5379;SDS011;2713;42.680;23.310;2022-09-09T14:38:02;17.17;;;14.60;;
5379;SDS011;2713;42.680;23.310;2022-09-09T14:40:30;15.87;;;13.80;;
5379;SDS011;2713;42.680;23.310;2022-09-09T14:42:57;23.13;;;16.17;;
5379;SDS011;2713;42.680;23.310;2022-09-09T14:45:24;20.17;;;15.67;;
5379;SDS011;2713;42.680;23.310;2022-09-09T14:47:51;18.90;;;13.27;;
5379;SDS011;2713;42.680;23.310;2022-09-09T14:50:18;16.37;;;13.60;;
5379;SDS011;2713;42.680;23.310;2022-09-09T14:52:47;18.00;;;12.40;;
5379;SDS011;2713;42.680;23.310;2022-09-09T14:55:14;16.63;;;11.50;;
5379;SDS011;2713;42.680;23.310;2022-09-09T14:57:41;17.50;;;12.97;;
5379;SDS011;2713;42.680;23.310;2022-09-09T15:00:09;14.87;;;13.27;;
5379;SDS011;2713;42.680;23.310;2022-09-09T15:02:37;14.57;;;12.00;;
5379;SDS011;2713;42.680;23.310;2022-09-09T15:05:04;19.90;;;13.77;;
5379;SDS011;2713;42.680;23.310;2022-09-09T15:07:31;18.00;;;12.60;;
5379;SDS011;2713;42.680;23.310;2022-09-09T15:10:00;18.37;;;12.33;;
5379;SDS011;2713;42.680;23.310;2022-09-09T15:12:27;20.23;;;12.07;;